DAAGDAOO

Guest
Details From DAAG - Alger Houari Boumediene
To DAOO - ES SENIA
Flight Number -
Tags generated
Created
Modified
Stats Distance 197 nm / 366 km
Max Altitude 24,500 ft / 7,468 m
Waypoints 4
Social Downloads 28
Likes 0
Share VATSIM

Download

Looking for another format? Having issues loading an existing format? Contact us
Advertisement - Login to hide

Notes

Basic altitude profile: - Ascent Rate: 2500ft/min - Ascent Speed: 250kts - Cruise Altitude: 35000ft - Cruise Speed: 420kts - Descent Rate: 1500ft/min - Descent Speed: 250kts

Route

DAAG DAHRA UA411 MOS DAOO

ID Type Via Altitude Latitude Longitude Leg Dist Tot Dist Heading (true) Name
O DAAG APT - 0 ft / 0 m 36.69752˚ 3.21308˚ - 0 nm - Alger Houari Boumediene
DAHRA FIX - 24,100 ft / 7,346 m 36.38333˚ 1.50000˚ 84 nm 84 nm 258° / 257° -
MOS VOR UA411 (AWY-HI) 24,500 ft / 7,468 m 35.89861˚ 0.13639˚ 72 nm 157 nm 247° / 246° MOSTAGANEM VOR-DME
O DAOO APT - 0 ft / 0 m 35.62386˚ -0.62118˚ 40 nm 197 nm 246° / 246° ES SENIA

Altitude Profile

Advertisement - Login to hide

Weather


0- 5 10 15 20 25 30 35+ Temperature / ° C

Clouds and Precipitation
Forecast for 2018-05-27 12:00 UTC. Updated 4 hours ago

Ground ~20,000 ft ~40,000 ft Winds

DAAG

Details ICAO DAAG (ALG)
Name Alger Houari Boumediene
Region Algeria
Timezone Africa/Algiers (UTC+1.0)
Stats Elevation 82 ft / 25 m (AMSL)
Location 36.697521° 3.213079°
Runways 2
Magnetic Variation 1.103° E

METAR

DAAG 271530Z 35012KT 310V010 9999 SCT026 SCT090 BKN200 22/17 Q1014

Decode

TAF

TAF DAAG 271100Z 2712/2812 32008KT 9999 SCT023 BKN100 BECMG 2713/2717 FEW023TCU FEW026CB TEMPO 2717/2803 28020G30KT 5000 -TSRA FEW023CB PROB40 TEMPO 2719/2723 3000 TSGRRA BKN015 SCT020CB PROB40 TEMPO 2804/2807 2000 -RA BKN013 BECMG 2808/2812 FEW020 SCT043

Decode

Departure Runways

ID Width Length Bearing (true) Bearing (mag) Surface Threshold Offset Overrun Length
05 197 ft / 60 m 11,459 ft / 3,493 m 52.87° 51.77° Asphalt 0 ft / 0 m 0 ft / 0 m
09 148 ft / 45 m 11,442 ft / 3,487 m 91.75° 90.65° Asphalt 0 ft / 0 m 1,017 ft / 310 m
23 197 ft / 60 m 11,459 ft / 3,493 m 232.89° 231.79° Asphalt 0 ft / 0 m 0 ft / 0 m
27 148 ft / 45 m 11,442 ft / 3,487 m 271.78° 270.68° Asphalt 0 ft / 0 m 0 ft / 0 m

DAOO

Details ICAO DAOO (ORN)
Name ES SENIA
Region Algeria
Timezone Africa/Algiers (UTC+1.0)
Stats Elevation 295 ft / 90 m (AMSL)
Location 35.623858° -0.621183°
Runways 1
Magnetic Variation 0.199° E

METAR

DAOO 271530Z 36013KT 320V030 9999 FEW026 24/13 Q1013

Decode

TAF

TAF DAOO 271100Z 2712/2812 30012KT 9999 SCT026 TEMPO 2712/2718 32018KT PROB40 TEMPO 2714/2720 FEW026CB SCT030TCU BECMG 2721/2724 24014KT

Decode

Destination Runways

ID Width Length Bearing (true) Bearing (mag) Surface Threshold Offset Overrun Length
07 148 ft / 45 m 10,006 ft / 3,050 m 67.06° 66.86° Asphalt 0 ft / 0 m 328 ft / 100 m
25 148 ft / 45 m 10,006 ft / 3,050 m 247.08° 246.88° Asphalt 196 ft / 60 m 0 ft / 0 m

Popular Alternatives